sensor_id;sensor_type;location;lat;lon;timestamp;pressure;altitude;pressure_sealevel;temperature;humidity
43621;BME280;29213;50.770;7.298;2023-02-04T00:00:12;102331.59;;;6.92;56.17
43621;BME280;29213;50.770;7.298;2023-02-04T00:02:39;102337.56;;;6.95;55.99
43621;BME280;29213;50.770;7.298;2023-02-04T00:05:05;102290.47;;;6.57;55.34
43621;BME280;29213;50.770;7.298;2023-02-04T00:07:30;102259.94;;;6.37;55.57
43621;BME280;29213;50.770;7.298;2023-02-04T00:09:56;102257.16;;;6.38;55.90
43621;BME280;29213;50.770;7.298;2023-02-04T00:12:21;102345.59;;;6.94;55.86
43621;BME280;29213;50.770;7.298;2023-02-04T00:14:47;102307.22;;;6.72;55.72
43621;BME280;29213;50.770;7.298;2023-02-04T00:17:12;102238.94;;;6.19;55.25
43621;BME280;29213;50.770;7.298;2023-02-04T00:19:39;102345.41;;;6.82;55.67
43621;BME280;29213;50.770;7.298;2023-02-04T00:22:04;102245.28;;;6.16;55.46
43621;BME280;29213;50.770;7.298;2023-02-04T00:24:32;102364.03;;;6.95;54.87
43621;BME280;29213;50.770;7.298;2023-02-04T00:26:58;102359.59;;;6.81;55.38
43621;BME280;29213;50.770;7.298;2023-02-04T00:29:23;102326.13;;;6.66;55.25
43621;BME280;29213;50.770;7.298;2023-02-04T00:31:48;102282.50;;;6.42;55.24
43621;BME280;29213;50.770;7.298;2023-02-04T00:34:14;102311.84;;;6.54;54.78
43621;BME280;29213;50.770;7.298;2023-02-04T00:36:39;102226.75;;;6.02;54.89
43621;BME280;29213;50.770;7.298;2023-02-04T00:39:04;102004.19;;;4.47;54.92
43621;BME280;29213;50.770;7.298;2023-02-04T00:41:30;102349.22;;;6.64;55.52
43621;BME280;29213;50.770;7.298;2023-02-04T00:43:55;102319.53;;;6.59;55.13
43621;BME280;29213;50.770;7.298;2023-02-04T00:46:20;102336.44;;;6.56;55.10
43621;BME280;29213;50.770;7.298;2023-02-04T00:48:46;102351.94;;;6.62;55.02
43621;BME280;29213;50.770;7.298;2023-02-04T00:51:11;102355.16;;;6.67;55.19
43621;BME280;29213;50.770;7.298;2023-02-04T00:53:36;102359.88;;;6.62;54.81
43621;BME280;29213;50.770;7.298;2023-02-04T00:56:02;102297.44;;;6.29;55.30
43621;BME280;29213;50.770;7.298;2023-02-04T00:58:27;102374.16;;;6.74;55.11
43621;BME280;29213;50.770;7.298;2023-02-04T01:00:53;102339.91;;;6.42;54.92
43621;BME280;29213;50.770;7.298;2023-02-04T01:03:18;102390.91;;;6.75;54.86
43621;BME280;29213;50.770;7.298;2023-02-04T01:05:43;102348.25;;;6.50;55.11
43621;BME280;29213;50.770;7.298;2023-02-04T01:08:09;102347.75;;;6.43;54.95
43621;BME280;29213;50.770;7.298;2023-02-04T01:10:35;102364.78;;;6.54;54.95
43621;BME280;29213;50.770;7.298;2023-02-04T01:13:00;102284.84;;;6.03;54.93
43621;BME280;29213;50.770;7.298;2023-02-04T01:15:26;102358.34;;;6.43;55.21
43621;BME280;29213;50.770;7.298;2023-02-04T01:17:51;102321.53;;;6.24;55.19
43621;BME280;29213;50.770;7.298;2023-02-04T01:20:17;102415.59;;;6.75;54.92
43621;BME280;29213;50.770;7.298;2023-02-04T01:22:42;102362.59;;;6.46;54.63
43621;BME280;29213;50.770;7.298;2023-02-04T01:25:07;102355.44;;;6.48;54.75
43621;BME280;29213;50.770;7.298;2023-02-04T01:27:33;102147.81;;;5.05;54.77
43621;BME280;29213;50.770;7.298;2023-02-04T01:29:58;102233.75;;;5.58;54.42
43621;BME280;29213;50.770;7.298;2023-02-04T01:32:24;102332.47;;;6.18;54.91
43621;BME280;29213;50.770;7.298;2023-02-04T01:34:49;102374.34;;;6.56;54.33
43621;BME280;29213;50.770;7.298;2023-02-04T01:37:14;102390.44;;;6.53;54.42
43621;BME280;29213;50.770;7.298;2023-02-04T01:39:40;102396.84;;;6.49;54.56
43621;BME280;29213;50.770;7.298;2023-02-04T01:42:05;102383.53;;;6.35;54.71
43621;BME280;29213;50.770;7.298;2023-02-04T01:44:31;102417.34;;;6.60;54.51
43621;BME280;29213;50.770;7.298;2023-02-04T01:46:57;102446.06;;;6.82;54.45
43621;BME280;29213;50.770;7.298;2023-02-04T01:49:23;102381.47;;;6.40;54.35
43621;BME280;29213;50.770;7.298;2023-02-04T01:51:48;102409.81;;;6.68;54.37
43621;BME280;29213;50.770;7.298;2023-02-04T01:54:14;102401.75;;;6.55;54.53
43621;BME280;29213;50.770;7.298;2023-02-04T01:56:44;102451.63;;;6.92;54.45
43621;BME280;29213;50.770;7.298;2023-02-04T01:59:16;102454.94;;;6.96;54.22
43621;BME280;29213;50.770;7.298;2023-02-04T02:01:46;102353.00;;;6.29;54.28
43621;BME280;29213;50.770;7.298;2023-02-04T02:04:15;102455.44;;;7.03;54.02
43621;BME280;29213;50.770;7.298;2023-02-04T02:06:44;102419.47;;;6.84;54.29
43621;BME280;29213;50.770;7.298;2023-02-04T02:09:11;102458.66;;;7.08;54.09
43621;BME280;29213;50.770;7.298;2023-02-04T02:11:37;102464.78;;;7.08;54.00
43621;BME280;29213;50.770;7.298;2023-02-04T02:14:02;102379.38;;;6.61;54.34
43621;BME280;29213;50.770;7.298;2023-02-04T02:16:28;102428.09;;;6.88;54.01
43621;BME280;29213;50.770;7.298;2023-02-04T02:18:53;102361.00;;;6.43;53.71
43621;BME280;29213;50.770;7.298;2023-02-04T02:21:36;102431.56;;;6.88;53.78
43621;BME280;29213;50.770;7.298;2023-02-04T02:24:26;102467.34;;;7.10;54.08
43621;BME280;29213;50.770;7.298;2023-02-04T02:26:53;102392.03;;;6.56;53.65
43621;BME280;29213;50.770;7.298;2023-02-04T02:29:19;102422.56;;;6.62;53.85
43621;BME280;29213;50.770;7.298;2023-02-04T02:31:45;102431.38;;;6.77;53.73
43621;BME280;29213;50.770;7.298;2023-02-04T02:34:10;102409.78;;;6.54;54.16
43621;BME280;29213;50.770;7.298;2023-02-04T02:36:35;102471.78;;;6.95;53.82
43621;BME280;29213;50.770;7.298;2023-02-04T02:39:01;102413.00;;;6.59;53.96
43621;BME280;29213;50.770;7.298;2023-02-04T02:41:27;102414.63;;;6.62;54.51
43621;BME280;29213;50.770;7.298;2023-02-04T02:43:52;102367.28;;;6.26;53.97
43621;BME280;29213;50.770;7.298;2023-02-04T02:46:18;102437.16;;;6.83;53.84
43621;BME280;29213;50.770;7.298;2023-02-04T02:48:43;102407.06;;;6.55;54.03
43621;BME280;29213;50.770;7.298;2023-02-04T02:51:09;102322.91;;;6.01;53.72
43621;BME280;29213;50.770;7.298;2023-02-04T02:53:34;102439.41;;;6.61;54.04
43621;BME280;29213;50.770;7.298;2023-02-04T02:56:00;102373.59;;;6.24;54.29
43621;BME280;29213;50.770;7.298;2023-02-04T02:58:31;102402.72;;;6.38;54.59
43621;BME280;29213;50.770;7.298;2023-02-04T03:01:04;102410.66;;;6.24;54.31
43621;BME280;29213;50.770;7.298;2023-02-04T03:03:33;102434.06;;;6.46;54.38
43621;BME280;29213;50.770;7.298;2023-02-04T03:06:04;102477.06;;;6.80;54.45
43621;BME280;29213;50.770;7.298;2023-02-04T03:08:33;102429.75;;;6.60;54.36
43621;BME280;29213;50.770;7.298;2023-02-04T03:10:59;102388.06;;;6.33;54.17
43621;BME280;29213;50.770;7.298;2023-02-04T03:13:24;102458.81;;;6.76;54.59
43621;BME280;29213;50.770;7.298;2023-02-04T03:15:51;102310.09;;;5.79;54.09
43621;BME280;29213;50.770;7.298;2023-02-04T03:18:18;102508.03;;;7.09;54.44
43621;BME280;29213;50.770;7.298;2023-02-04T03:20:45;102492.59;;;7.01;54.13
43621;BME280;29213;50.770;7.298;2023-02-04T03:23:11;102497.72;;;7.04;54.29
43621;BME280;29213;50.770;7.298;2023-02-04T03:25:37;102512.00;;;7.16;54.54
43621;BME280;29213;50.770;7.298;2023-02-04T03:28:03;102441.31;;;6.73;54.39
43621;BME280;29213;50.770;7.298;2023-02-04T03:30:29;102521.88;;;7.14;54.40
43621;BME280;29213;50.770;7.298;2023-02-04T03:32:56;102525.25;;;7.16;54.32
43621;BME280;29213;50.770;7.298;2023-02-04T03:35:21;102368.75;;;6.16;54.36
43621;BME280;29213;50.770;7.298;2023-02-04T03:37:47;102368.59;;;6.19;54.80
43621;BME280;29213;50.770;7.298;2023-02-04T03:40:13;102477.06;;;6.80;54.74
43621;BME280;29213;50.770;7.298;2023-02-04T03:42:38;102472.91;;;6.76;54.80
43621;BME280;29213;50.770;7.298;2023-02-04T03:45:04;102527.13;;;7.00;54.99
43621;BME280;29213;50.770;7.298;2023-02-04T03:47:29;102464.47;;;6.69;55.00
43621;BME280;29213;50.770;7.298;2023-02-04T03:49:55;102484.25;;;6.78;55.61
43621;BME280;29213;50.770;7.298;2023-02-04T03:52:20;102514.75;;;7.00;55.38
43621;BME280;29213;50.770;7.298;2023-02-04T03:54:46;102376.63;;;6.18;55.75
43621;BME280;29213;50.770;7.298;2023-02-04T03:57:11;102533.13;;;7.03;55.68
43621;BME280;29213;50.770;7.298;2023-02-04T03:59:37;102439.19;;;6.49;55.63
43621;BME280;29213;50.770;7.298;2023-02-04T04:02:03;102549.13;;;7.16;55.87
43621;BME280;29213;50.770;7.298;2023-02-04T04:04:28;102309.84;;;5.83;55.88
43621;BME280;29213;50.770;7.298;2023-02-04T04:06:54;102459.91;;;6.57;56.35
43621;BME280;29213;50.770;7.298;2023-02-04T04:09:19;102456.59;;;6.53;56.48
43621;BME280;29213;50.770;7.298;2023-02-04T04:11:44;102518.59;;;6.94;56.65
43621;BME280;29213;50.770;7.298;2023-02-04T04:14:10;102514.13;;;6.80;56.36
43621;BME280;29213;50.770;7.298;2023-02-04T04:16:35;102247.91;;;5.10;57.00
43621;BME280;29213;50.770;7.298;2023-02-04T04:19:00;102541.41;;;6.82;57.37
43621;BME280;29213;50.770;7.298;2023-02-04T04:21:26;102439.16;;;6.19;57.18
43621;BME280;29213;50.770;7.298;2023-02-04T04:23:51;102497.81;;;6.58;57.31
43621;BME280;29213;50.770;7.298;2023-02-04T04:26:16;102454.28;;;6.16;57.04
43621;BME280;29213;50.770;7.298;2023-02-04T04:28:42;102540.81;;;6.77;57.05
43621;BME280;29213;50.770;7.298;2023-02-04T04:31:07;102482.13;;;6.38;57.29
43621;BME280;29213;50.770;7.298;2023-02-04T04:33:33;102537.75;;;6.69;57.58
43621;BME280;29213;50.770;7.298;2023-02-04T04:35:58;102520.22;;;6.52;57.44
43621;BME280;29213;50.770;7.298;2023-02-04T04:38:23;102542.03;;;6.72;57.42
43621;BME280;29213;50.770;7.298;2023-02-04T04:40:49;102517.75;;;6.49;57.61
43621;BME280;29213;50.770;7.298;2023-02-04T04:43:14;102462.81;;;6.06;57.83
43621;BME280;29213;50.770;7.298;2023-02-04T04:45:40;102524.94;;;6.47;57.87
43621;BME280;29213;50.770;7.298;2023-02-04T04:48:05;102508.13;;;6.32;57.92
43621;BME280;29213;50.770;7.298;2023-02-04T04:50:30;102550.97;;;6.54;57.80
43621;BME280;29213;50.770;7.298;2023-02-04T04:52:56;102510.00;;;6.13;58.13
43621;BME280;29213;50.770;7.298;2023-02-04T04:55:21;102473.69;;;6.01;57.76
43621;BME280;29213;50.770;7.298;2023-02-04T04:57:47;102558.41;;;6.32;58.23
43621;BME280;29213;50.770;7.298;2023-02-04T05:00:17;102552.16;;;6.33;58.21
43621;BME280;29213;50.770;7.298;2023-02-04T05:02:43;102588.03;;;6.54;58.11
43621;BME280;29213;50.770;7.298;2023-02-04T05:05:09;102595.03;;;6.55;58.09
43621;BME280;29213;50.770;7.298;2023-02-04T05:07:35;102513.84;;;6.08;58.11
43621;BME280;29213;50.770;7.298;2023-02-04T05:10:01;102550.25;;;6.35;57.84
43621;BME280;29213;50.770;7.298;2023-02-04T05:12:26;102531.50;;;6.23;57.74
43621;BME280;29213;50.770;7.298;2023-02-04T05:14:52;102573.34;;;6.49;58.01
43621;BME280;29213;50.770;7.298;2023-02-04T05:17:17;102592.88;;;6.62;57.86
43621;BME280;29213;50.770;7.298;2023-02-04T05:19:42;102534.94;;;6.25;57.97
43621;BME280;29213;50.770;7.298;2023-02-04T05:22:08;102580.69;;;6.60;57.64
43621;BME280;29213;50.770;7.298;2023-02-04T05:24:33;102590.16;;;6.64;57.75
43621;BME280;29213;50.770;7.298;2023-02-04T05:26:59;102466.78;;;5.98;57.79
43621;BME280;29213;50.770;7.298;2023-02-04T05:29:24;102447.00;;;5.89;57.75
43621;BME280;29213;50.770;7.298;2023-02-04T05:31:49;102577.44;;;6.54;57.81
43621;BME280;29213;50.770;7.298;2023-02-04T05:34:15;102557.25;;;6.36;58.39
43621;BME280;29213;50.770;7.298;2023-02-04T05:36:40;102451.16;;;5.78;58.11
43621;BME280;29213;50.770;7.298;2023-02-04T05:39:05;102545.47;;;6.41;57.97
43621;BME280;29213;50.770;7.298;2023-02-04T05:41:31;102302.50;;;4.93;58.13
43621;BME280;29213;50.770;7.298;2023-02-04T05:43:56;102557.25;;;6.36;58.28
43621;BME280;29213;50.770;7.298;2023-02-04T05:46:21;102619.00;;;6.68;58.49
43621;BME280;29213;50.770;7.298;2023-02-04T05:48:47;102527.84;;;6.10;58.62
43621;BME280;29213;50.770;7.298;2023-02-04T05:51:12;102550.03;;;6.23;58.68
43621;BME280;29213;50.770;7.298;2023-02-04T05:53:38;102349.50;;;4.87;59.13
43621;BME280;29213;50.770;7.298;2023-02-04T05:56:03;102601.34;;;6.37;58.93
43621;BME280;29213;50.770;7.298;2023-02-04T05:58:29;102618.25;;;6.50;59.18
43621;BME280;29213;50.770;7.298;2023-02-04T06:00:58;102619.59;;;6.41;59.66
43621;BME280;29213;50.770;7.298;2023-02-04T06:03:26;102503.44;;;5.72;59.55
43621;BME280;29213;50.770;7.298;2023-02-04T06:05:51;102630.13;;;6.43;59.65
43621;BME280;29213;50.770;7.298;2023-02-04T06:08:17;102523.66;;;5.73;59.88
43621;BME280;29213;50.770;7.298;2023-02-04T06:10:42;102304.56;;;4.37;59.93
43621;BME280;29213;50.770;7.298;2023-02-04T06:13:08;102583.16;;;5.98;59.95
43621;BME280;29213;50.770;7.298;2023-02-04T06:15:33;102364.84;;;4.80;59.82
43621;BME280;29213;50.770;7.298;2023-02-04T06:17:59;102567.50;;;5.94;60.20
43621;BME280;29213;50.770;7.298;2023-02-04T06:20:24;102444.38;;;5.07;60.06
43621;BME280;29213;50.770;7.298;2023-02-04T06:22:50;102584.75;;;5.85;60.28
43621;BME280;29213;50.770;7.298;2023-02-04T06:25:22;102660.59;;;6.34;60.33
43621;BME280;29213;50.770;7.298;2023-02-04T06:27:47;102663.13;;;6.36;60.37
43621;BME280;29213;50.770;7.298;2023-02-04T06:30:13;102556.59;;;5.68;60.35
43621;BME280;29213;50.770;7.298;2023-02-04T06:32:39;102663.66;;;6.26;60.44
43621;BME280;29213;50.770;7.298;2023-02-04T06:35:04;102652.38;;;6.23;60.13
43621;BME280;29213;50.770;7.298;2023-02-04T06:37:30;102629.16;;;6.12;60.36
43621;BME280;29213;50.770;7.298;2023-02-04T06:39:55;102654.94;;;6.24;60.59
43621;BME280;29213;50.770;7.298;2023-02-04T06:42:22;102645.09;;;6.10;60.53
43621;BME280;29213;50.770;7.298;2023-02-04T06:44:49;102604.72;;;5.91;60.42
43621;BME280;29213;50.770;7.298;2023-02-04T06:47:15;102516.94;;;5.34;60.47
43621;BME280;29213;50.770;7.298;2023-02-04T06:49:40;102604.44;;;5.79;60.55
43621;BME280;29213;50.770;7.298;2023-02-04T06:52:05;102649.03;;;6.03;60.64
43621;BME280;29213;50.770;7.298;2023-02-04T06:54:31;102531.03;;;5.34;60.64
43621;BME280;29213;50.770;7.298;2023-02-04T06:56:56;102610.22;;;5.70;60.72
43621;BME280;29213;50.770;7.298;2023-02-04T06:59:28;102668.34;;;6.05;60.41
43621;BME280;29213;50.770;7.298;2023-02-04T07:01:56;102643.31;;;5.95;60.21
43621;BME280;29213;50.770;7.298;2023-02-04T07:04:22;102633.47;;;5.97;60.04
43621;BME280;29213;50.770;7.298;2023-02-04T07:06:47;102687.97;;;6.17;60.54
43621;BME280;29213;50.770;7.298;2023-02-04T07:09:12;102704.78;;;6.32;60.10
43621;BME280;29213;50.770;7.298;2023-02-04T07:11:38;102643.53;;;5.90;60.48
43621;BME280;29213;50.770;7.298;2023-02-04T07:14:03;102648.06;;;6.04;60.01
43621;BME280;29213;50.770;7.298;2023-02-04T07:16:29;102707.22;;;6.37;60.26
43621;BME280;29213;50.770;7.298;2023-02-04T07:18:55;102612.72;;;5.73;60.35
43621;BME280;29213;50.770;7.298;2023-02-04T07:21:20;102514.47;;;5.31;59.56
43621;BME280;29213;50.770;7.298;2023-02-04T07:23:45;102674.97;;;6.62;64.83
43621;BME280;29213;50.770;7.298;2023-02-04T07:26:11;102655.53;;;6.94;62.62
43621;BME280;29213;50.770;7.298;2023-02-04T07:28:36;102594.69;;;6.92;61.23
43621;BME280;29213;50.770;7.298;2023-02-04T07:31:01;102565.84;;;6.72;58.66
43621;BME280;29213;50.770;7.298;2023-02-04T07:33:27;102628.53;;;6.87;58.19
43621;BME280;29213;50.770;7.298;2023-02-04T07:35:52;102593.41;;;6.53;57.99
43621;BME280;29213;50.770;7.298;2023-02-04T07:38:17;102592.25;;;6.41;58.11
43621;BME280;29213;50.770;7.298;2023-02-04T07:40:43;102666.91;;;6.80;58.09
43621;BME280;29213;50.770;7.298;2023-02-04T07:43:08;102564.28;;;6.05;58.23
43621;BME280;29213;50.770;7.298;2023-02-04T07:45:34;102693.47;;;6.78;58.47
43621;BME280;29213;50.770;7.298;2023-02-04T07:47:59;102653.34;;;6.54;58.28
43621;BME280;29213;50.770;7.298;2023-02-04T07:50:24;102717.56;;;6.90;58.41
43621;BME280;29213;50.770;7.298;2023-02-04T07:52:50;102635.34;;;6.45;58.36
43621;BME280;29213;50.770;7.298;2023-02-04T07:55:15;102686.38;;;6.63;58.19
43621;BME280;29213;50.770;7.298;2023-02-04T07:57:40;102704.44;;;6.72;58.62
43621;BME280;29213;50.770;7.298;2023-02-04T08:00:06;102672.69;;;6.38;58.72
43621;BME280;29213;50.770;7.298;2023-02-04T08:02:32;102672.19;;;6.32;58.48
43621;BME280;29213;50.770;7.298;2023-02-04T08:04:57;102578.69;;;5.67;58.77
43621;BME280;29213;50.770;7.298;2023-02-04T08:07:22;102722.84;;;6.58;58.82
43621;BME280;29213;50.770;7.298;2023-02-04T08:09:48;102697.75;;;6.49;58.80
43621;BME280;29213;50.770;7.298;2023-02-04T08:12:13;102457.38;;;4.94;58.62
43621;BME280;29213;50.770;7.298;2023-02-04T08:14:39;102682.84;;;6.30;58.76
43621;BME280;29213;50.770;7.298;2023-02-04T08:17:04;102504.25;;;5.25;58.86
43621;BME280;29213;50.770;7.298;2023-02-04T08:19:29;102638.69;;;5.98;59.00
43621;BME280;29213;50.770;7.298;2023-02-04T08:21:55;102644.41;;;6.07;59.04
43621;BME280;29213;50.770;7.298;2023-02-04T08:24:20;102503.41;;;5.06;59.15
43621;BME280;29213;50.770;7.298;2023-02-04T08:26:45;102705.66;;;6.16;59.34
43621;BME280;29213;50.770;7.298;2023-02-04T08:29:11;102744.03;;;6.58;59.26
43621;BME280;29213;50.770;7.298;2023-02-04T08:31:37;102767.31;;;6.68;59.40
43621;BME280;29213;50.770;7.298;2023-02-04T08:34:03;102699.34;;;6.19;59.38
43621;BME280;29213;50.770;7.298;2023-02-04T08:36:29;102653.69;;;5.98;59.13
43621;BME280;29213;50.770;7.298;2023-02-04T08:38:55;102675.34;;;6.22;59.33
43621;BME280;29213;50.770;7.298;2023-02-04T08:41:20;102696.34;;;6.41;58.92
43621;BME280;29213;50.770;7.298;2023-02-04T08:43:45;102742.09;;;6.61;58.97
43621;BME280;29213;50.770;7.298;2023-02-04T08:46:11;102693.78;;;6.40;59.01
43621;BME280;29213;50.770;7.298;2023-02-04T08:48:37;102660.56;;;6.18;58.89
43621;BME280;29213;50.770;7.298;2023-02-04T08:51:02;102696.50;;;6.38;58.86
43621;BME280;29213;50.770;7.298;2023-02-04T08:53:28;102714.50;;;6.49;58.48
43621;BME280;29213;50.770;7.298;2023-02-04T08:55:53;102711.47;;;6.39;58.90
43621;BME280;29213;50.770;7.298;2023-02-04T08:58:18;102674.81;;;6.15;58.96
43621;BME280;29213;50.770;7.298;2023-02-04T09:00:44;102783.44;;;6.96;58.72
43621;BME280;29213;50.770;7.298;2023-02-04T09:03:09;102795.91;;;7.10;58.39
43621;BME280;29213;50.770;7.298;2023-02-04T09:05:35;102797.06;;;7.06;58.46
43621;BME280;29213;50.770;7.298;2023-02-04T09:08:00;102713.75;;;6.47;58.24
43621;BME280;29213;50.770;7.298;2023-02-04T09:10:25;102760.19;;;6.69;58.41
43621;BME280;29213;50.770;7.298;2023-02-04T09:12:51;102718.34;;;6.60;58.36
43621;BME280;29213;50.770;7.298;2023-02-04T09:15:21;102815.75;;;7.19;58.17
43621;BME280;29213;50.770;7.298;2023-02-04T09:17:46;102800.28;;;7.11;58.34
43621;BME280;29213;50.770;7.298;2023-02-04T09:20:12;102757.91;;;6.95;58.28
43621;BME280;29213;50.770;7.298;2023-02-04T09:22:37;102819.84;;;7.25;58.20
43621;BME280;29213;50.770;7.298;2023-02-04T09:25:03;102822.31;;;7.28;58.53
43621;BME280;29213;50.770;7.298;2023-02-04T09:27:29;102776.09;;;7.01;58.17
43621;BME280;29213;50.770;7.298;2023-02-04T09:29:54;102723.13;;;6.69;58.42
43621;BME280;29213;50.770;7.298;2023-02-04T09:32:19;102806.88;;;7.04;58.56
43621;BME280;29213;50.770;7.298;2023-02-04T09:34:46;102798.50;;;7.12;58.39
43621;BME280;29213;50.770;7.298;2023-02-04T09:37:11;102627.97;;;6.18;57.99
43621;BME280;29213;50.770;7.298;2023-02-04T09:39:36;102829.09;;;7.33;58.40
43621;BME280;29213;50.770;7.298;2023-02-04T09:42:02;102765.94;;;7.09;58.19
43621;BME280;29213;50.770;7.298;2023-02-04T09:44:28;102781.72;;;7.11;58.33
43621;BME280;29213;50.770;7.298;2023-02-04T09:46:56;102790.63;;;7.10;58.14
43621;BME280;29213;50.770;7.298;2023-02-04T09:49:23;102762.25;;;6.96;58.05
43621;BME280;29213;50.770;7.298;2023-02-04T09:51:48;102706.91;;;6.75;57.77
43621;BME280;29213;50.770;7.298;2023-02-04T09:54:17;102694.94;;;6.68;57.35
43621;BME280;29213;50.770;7.298;2023-02-04T09:56:43;102786.88;;;7.14;57.62
43621;BME280;29213;50.770;7.298;2023-02-04T09:59:13;102774.03;;;7.06;57.63
43621;BME280;29213;50.770;7.298;2023-02-04T10:01:39;102811.47;;;7.32;57.86
43621;BME280;29213;50.770;7.298;2023-02-04T10:04:09;102858.47;;;7.61;57.34
43621;BME280;29213;50.770;7.298;2023-02-04T10:06:36;102790.44;;;7.29;58.02
43621;BME280;29213;50.770;7.298;2023-02-04T10:09:01;102795.00;;;7.58;59.36
43621;BME280;29213;50.770;7.298;2023-02-04T10:11:31;102818.81;;;7.74;57.47
43621;BME280;29213;50.770;7.298;2023-02-04T10:13:58;102794.91;;;7.59;57.02
43621;BME280;29213;50.770;7.298;2023-02-04T10:16:27;102772.91;;;7.57;57.17
43621;BME280;29213;50.770;7.298;2023-02-04T10:19:06;102788.88;;;7.72;56.36
43621;BME280;29213;50.770;7.298;2023-02-04T10:21:34;102827.41;;;7.94;56.31
43621;BME280;29213;50.770;7.298;2023-02-04T10:24:04;102789.06;;;7.69;56.37
43621;BME280;29213;50.770;7.298;2023-02-04T10:26:31;102869.38;;;8.18;56.10
43621;BME280;29213;50.770;7.298;2023-02-04T10:29:05;102832.53;;;7.97;55.84
43621;BME280;29213;50.770;7.298;2023-02-04T10:31:32;102871.88;;;8.21;56.14
43621;BME280;29213;50.770;7.298;2023-02-04T10:34:15;102752.16;;;7.49;56.09
43621;BME280;29213;50.770;7.298;2023-02-04T10:36:44;102860.69;;;8.30;55.77
43621;BME280;29213;50.770;7.298;2023-02-04T10:41:38;102848.22;;;8.16;55.88
43621;BME280;29213;50.770;7.298;2023-02-04T10:44:10;102868.06;;;8.25;55.27
43621;BME280;29213;50.770;7.298;2023-02-04T10:46:35;102810.13;;;7.86;55.06
43621;BME280;29213;50.770;7.298;2023-02-04T10:49:14;102823.97;;;7.92;55.54
43621;BME280;29213;50.770;7.298;2023-02-04T10:51:40;102695.44;;;7.21;55.33
43621;BME280;29213;50.770;7.298;2023-02-04T10:54:11;102855.38;;;8.30;55.33
43621;BME280;29213;50.770;7.298;2023-02-04T10:57:03;102837.72;;;8.29;55.08
43621;BME280;29213;50.770;7.298;2023-02-04T10:59:32;102803.19;;;8.14;55.26
43621;BME280;29213;50.770;7.298;2023-02-04T11:01:59;102878.81;;;8.67;55.09
43621;BME280;29213;50.770;7.298;2023-02-04T11:04:26;102830.06;;;8.39;54.67
43621;BME280;29213;50.770;7.298;2023-02-04T11:06:53;102869.16;;;8.66;54.91
43621;BME280;29213;50.770;7.298;2023-02-04T11:09:20;102853.03;;;8.54;54.55
43621;BME280;29213;50.770;7.298;2023-02-04T11:11:50;102720.59;;;7.75;54.36
43621;BME280;29213;50.770;7.298;2023-02-04T11:14:26;102865.06;;;8.89;54.06
43621;BME280;29213;50.770;7.298;2023-02-04T11:16:53;102870.84;;;8.81;53.75
43621;BME280;29213;50.770;7.298;2023-02-04T11:19:36;102861.16;;;8.95;53.04
43621;BME280;29213;50.770;7.298;2023-02-04T11:24:47;102863.16;;;9.06;52.91
43621;BME280;29213;50.770;7.298;2023-02-04T11:27:22;102838.28;;;8.92;52.56
43621;BME280;29213;50.770;7.298;2023-02-04T11:29:48;102800.38;;;8.61;51.93
43621;BME280;29213;50.770;7.298;2023-02-04T11:32:34;102780.81;;;8.48;51.89
43621;BME280;29213;50.770;7.298;2023-02-04T11:35:23;102823.69;;;8.70;51.02
43621;BME280;29213;50.770;7.298;2023-02-04T11:37:49;102765.59;;;8.37;52.10
43621;BME280;29213;50.770;7.298;2023-02-04T11:40:31;102862.19;;;9.07;52.18
43621;BME280;29213;50.770;7.298;2023-02-04T11:43:17;102790.72;;;8.60;52.07
43621;BME280;29213;50.770;7.298;2023-02-04T11:45:42;102805.78;;;8.74;52.27
43621;BME280;29213;50.770;7.298;2023-02-04T11:48:17;102874.50;;;9.22;51.68
43621;BME280;29213;50.770;7.298;2023-02-04T11:50:54;102862.50;;;9.30;50.52
43621;BME280;29213;50.770;7.298;2023-02-04T11:53:23;102807.91;;;8.96;51.20
43621;BME280;29213;50.770;7.298;2023-02-04T11:55:48;102847.03;;;8.94;50.37
43621;BME280;29213;50.770;7.298;2023-02-04T11:58:17;102792.75;;;8.69;51.20
43621;BME280;29213;50.770;7.298;2023-02-04T12:00:43;102810.22;;;8.88;51.23
43621;BME280;29213;50.770;7.298;2023-02-04T12:03:29;102862.59;;;9.28;50.96
43621;BME280;29213;50.770;7.298;2023-02-04T12:05:55;102864.44;;;9.28;51.26
43621;BME280;29213;50.770;7.298;2023-02-04T12:11:05;102768.59;;;8.74;51.38
43621;BME280;29213;50.770;7.298;2023-02-04T12:13:32;102871.19;;;9.19;50.35
43621;BME280;29213;50.770;7.298;2023-02-04T12:18:24;102837.44;;;8.92;51.71
43621;BME280;29213;50.770;7.298;2023-02-04T12:20:52;102819.66;;;8.92;51.39
43621;BME280;29213;50.770;7.298;2023-02-04T12:23:18;102845.66;;;9.16;51.35
43621;BME280;29213;50.770;7.298;2023-02-04T12:25:43;102875.72;;;9.31;51.27
43621;BME280;29213;50.770;7.298;2023-02-04T12:28:08;102823.28;;;8.91;51.73
43621;BME280;29213;50.770;7.298;2023-02-04T12:30:34;102841.22;;;9.02;51.18
43621;BME280;29213;50.770;7.298;2023-02-04T12:33:00;102852.59;;;9.19;51.24
43621;BME280;29213;50.770;7.298;2023-02-04T12:35:25;102808.31;;;8.90;50.68
43621;BME280;29213;50.770;7.298;2023-02-04T12:37:51;102575.94;;;7.55;51.05
43621;BME280;29213;50.770;7.298;2023-02-04T12:40:18;102808.38;;;8.89;49.90
43621;BME280;29213;50.770;7.298;2023-02-04T12:42:44;102757.22;;;8.58;50.31
43621;BME280;29213;50.770;7.298;2023-02-04T12:45:11;102840.34;;;9.16;50.41
43621;BME280;29213;50.770;7.298;2023-02-04T12:47:37;102860.59;;;9.32;50.40
43621;BME280;29213;50.770;7.298;2023-02-04T12:50:03;102831.91;;;9.09;50.07
43621;BME280;29213;50.770;7.298;2023-02-04T12:52:29;102803.38;;;8.84;49.82
43621;BME280;29213;50.770;7.298;2023-02-04T12:54:54;102870.72;;;9.12;50.02
43621;BME280;29213;50.770;7.298;2023-02-04T12:57:19;102795.59;;;8.81;50.15
43621;BME280;29213;50.770;7.298;2023-02-04T12:59:45;102846.50;;;9.17;49.76
43621;BME280;29213;50.770;7.298;2023-02-04T13:02:11;102864.59;;;9.39;49.49
43621;BME280;29213;50.770;7.298;2023-02-04T13:04:36;102794.03;;;9.06;49.47
43621;BME280;29213;50.770;7.298;2023-02-04T13:07:02;102621.09;;;7.97;49.52